createdAt,value
2023-01-31T00:00:12.483Z,16.70
2023-01-31T00:02:42.814Z,15.60
2023-01-31T00:05:10.794Z,15.70
2023-01-31T00:07:38.752Z,15.50
2023-01-31T00:10:07.525Z,16.30
2023-01-31T00:12:35.978Z,16.40
2023-01-31T00:15:04.740Z,15.80
2023-01-31T00:17:33.034Z,17.50
2023-01-31T00:20:01.056Z,15.40
2023-01-31T00:22:29.632Z,16.80
2023-01-31T00:24:57.793Z,15.40
2023-01-31T00:27:25.830Z,16.10
2023-01-31T00:29:54.657Z,13.90
2023-01-31T00:32:22.799Z,15.70
2023-01-31T00:34:55.516Z,14.10
2023-01-31T00:37:23.929Z,16.00
2023-01-31T00:39:53.333Z,15.40
2023-01-31T00:42:21.273Z,15.30
2023-01-31T00:44:49.602Z,14.90
2023-01-31T00:47:18.849Z,16.30
2023-01-31T00:49:47.089Z,15.90
2023-01-31T00:52:15.239Z,15.90
2023-01-31T00:54:43.229Z,15.50
2023-01-31T00:57:11.261Z,16.10
2023-01-31T00:59:39.296Z,15.30
2023-01-31T01:02:07.492Z,16.30
2023-01-31T01:04:35.608Z,15.40
2023-01-31T01:07:03.643Z,14.90
2023-01-31T01:09:34.954Z,15.10
2023-01-31T01:12:03.597Z,14.30
2023-01-31T01:14:32.138Z,14.90
2023-01-31T01:17:00.765Z,14.50
2023-01-31T01:19:28.810Z,15.30
2023-01-31T01:21:56.888Z,14.70
2023-01-31T01:24:25.540Z,14.80
2023-01-31T01:26:53.638Z,13.20
2023-01-31T01:29:21.780Z,15.70
2023-01-31T01:31:51.163Z,15.20
2023-01-31T01:34:20.175Z,14.30
2023-01-31T01:36:48.306Z,14.60
2023-01-31T01:39:18.288Z,14.90
2023-01-31T01:41:47.052Z,17.30
2023-01-31T01:44:42.557Z,14.90
2023-01-31T01:47:50.144Z,14.40
2023-01-31T01:50:27.618Z,14.70
2023-01-31T01:53:01.401Z,15.00
2023-01-31T01:55:42.931Z,13.40
2023-01-31T01:58:19.518Z,15.60
2023-01-31T02:00:47.709Z,14.20
2023-01-31T02:03:15.893Z,14.80
2023-01-31T02:05:49.538Z,14.60
2023-01-31T02:08:19.382Z,13.90
2023-01-31T02:10:56.707Z,16.20
2023-01-31T02:13:24.929Z,14.60
2023-01-31T02:15:53.172Z,15.30
2023-01-31T02:18:22.424Z,13.90
2023-01-31T02:21:30.183Z,15.50
2023-01-31T02:24:13.573Z,15.20
2023-01-31T02:27:10.992Z,16.60
2023-01-31T02:30:13.972Z,17.00
2023-01-31T02:32:49.753Z,17.30
2023-01-31T02:35:39.395Z,17.00
2023-01-31T02:38:31.983Z,17.00
2023-01-31T02:41:10.252Z,17.40
2023-01-31T02:44:09.165Z,16.40
2023-01-31T02:46:55.909Z,15.60
2023-01-31T02:49:37.377Z,15.20
2023-01-31T02:52:35.540Z,17.40
2023-01-31T02:55:43.364Z,15.60
2023-01-31T02:58:12.668Z,15.60
2023-01-31T03:00:42.237Z,14.50
2023-01-31T03:03:32.012Z,16.00
2023-01-31T03:06:23.454Z,13.80
2023-01-31T03:09:05.900Z,16.10
2023-01-31T03:11:55.759Z,16.50
2023-01-31T03:14:44.477Z,15.60
2023-01-31T03:17:33.999Z,15.10
2023-01-31T03:20:08.570Z,15.40
2023-01-31T03:22:46.171Z,17.30
2023-01-31T03:25:15.509Z,15.10
2023-01-31T03:27:49.165Z,15.70
2023-01-31T03:30:21.302Z,18.40
2023-01-31T03:32:56.192Z,18.60
2023-01-31T03:35:26.099Z,20.30
2023-01-31T03:38:02.213Z,18.00
2023-01-31T03:40:37.309Z,19.60
2023-01-31T03:43:09.562Z,18.10
2023-01-31T03:45:42.960Z,17.90
2023-01-31T03:48:15.238Z,18.10
2023-01-31T03:50:47.579Z,17.40
2023-01-31T03:53:36.988Z,17.30
2023-01-31T03:56:09.656Z,16.30
2023-01-31T03:58:41.275Z,17.20
2023-01-31T04:01:09.495Z,18.50
2023-01-31T04:03:42.760Z,18.10
2023-01-31T04:06:10.947Z,18.60
2023-01-31T04:11:11.744Z,17.70
2023-01-31T04:13:40.119Z,19.00
2023-01-31T04:16:08.279Z,17.50
2023-01-31T04:18:38.079Z,19.80
2023-01-31T04:21:06.698Z,18.30
2023-01-31T04:23:34.684Z,18.00
2023-01-31T04:26:03.532Z,18.00
2023-01-31T04:28:32.126Z,14.60
2023-01-31T04:31:00.374Z,20.30
2023-01-31T04:33:30.496Z,19.00
2023-01-31T04:35:58.883Z,18.20
2023-01-31T04:38:26.950Z,18.40
2023-01-31T04:40:55.635Z,18.00
2023-01-31T04:43:24.212Z,18.30
2023-01-31T04:45:52.263Z,18.80
2023-01-31T04:48:20.342Z,19.80
2023-01-31T04:50:49.088Z,19.90
2023-01-31T04:53:17.016Z,18.30
2023-01-31T04:55:46.845Z,19.50
2023-01-31T04:58:14.828Z,19.90
2023-01-31T05:00:45.092Z,19.60
2023-01-31T05:03:13.418Z,19.20
2023-01-31T05:05:41.672Z,19.90
2023-01-31T05:08:09.842Z,15.70
2023-01-31T05:10:37.871Z,18.80
2023-01-31T05:13:06.350Z,21.20
2023-01-31T05:15:34.440Z,20.60
2023-01-31T05:18:03.077Z,20.30
2023-01-31T05:20:33.903Z,21.40
2023-01-31T05:23:02.677Z,20.80
2023-01-31T05:25:31.625Z,20.60
2023-01-31T05:28:00.359Z,21.10
2023-01-31T05:30:28.440Z,21.40
2023-01-31T05:32:57.219Z,21.10
2023-01-31T05:35:25.490Z,23.00
2023-01-31T05:37:54.580Z,22.10
2023-01-31T05:40:23.688Z,20.60
2023-01-31T08:26:30.681Z,22.50
2023-01-31T08:33:57.531Z,21.30
2023-01-31T08:36:31.937Z,23.30
2023-01-31T08:39:00.369Z,23.60
2023-01-31T08:41:29.388Z,24.60
2023-01-31T08:43:58.907Z,25.50
2023-01-31T08:46:30.805Z,25.40
2023-01-31T08:49:04.635Z,24.40
2023-01-31T08:51:34.177Z,25.70
2023-01-31T08:54:02.183Z,23.30
2023-01-31T08:56:30.448Z,23.30
2023-01-31T08:58:58.597Z,22.70
2023-01-31T09:01:26.773Z,18.20
2023-01-31T09:03:57.361Z,23.40
2023-01-31T09:06:27.675Z,22.90
2023-01-31T09:08:59.912Z,24.10
2023-01-31T09:11:29.083Z,25.20
2023-01-31T09:13:57.977Z,22.80
2023-01-31T09:16:26.328Z,23.30
2023-01-31T09:18:56.041Z,22.40
2023-01-31T09:21:24.382Z,21.80
2023-01-31T09:23:57.237Z,21.00
2023-01-31T09:26:25.406Z,21.60
2023-01-31T09:28:53.650Z,21.90
2023-01-31T09:31:22.152Z,22.00
2023-01-31T09:33:50.446Z,21.10
2023-01-31T09:36:20.417Z,20.70
2023-01-31T09:38:48.715Z,21.50
2023-01-31T09:41:17.480Z,21.30
2023-01-31T09:43:49.818Z,21.40
2023-01-31T09:46:19.547Z,21.90
2023-01-31T09:48:51.226Z,22.10
2023-01-31T09:51:19.364Z,22.00
2023-01-31T09:53:47.451Z,21.80
2023-01-31T09:56:34.673Z,20.90
2023-01-31T09:59:12.809Z,22.80
2023-01-31T10:01:47.913Z,20.40
2023-01-31T10:04:21.989Z,20.90
2023-01-31T10:07:01.644Z,21.50
2023-01-31T10:09:35.981Z,20.90
2023-01-31T10:12:06.468Z,21.30
2023-01-31T10:14:36.625Z,22.70
2023-01-31T10:18:07.858Z,20.90
2023-01-31T10:20:39.092Z,21.30
2023-01-31T10:23:15.131Z,22.40
2023-01-31T10:25:46.260Z,24.20
2023-01-31T10:28:30.396Z,22.50
2023-01-31T10:31:15.700Z,22.20
2023-01-31T10:33:49.807Z,22.00
2023-01-31T10:36:29.221Z,21.70
2023-01-31T10:39:07.968Z,21.30
2023-01-31T10:41:48.121Z,20.90
2023-01-31T10:44:31.389Z,23.80
2023-01-31T10:46:59.514Z,23.00
2023-01-31T10:49:27.666Z,23.00
2023-01-31T10:52:18.055Z,24.30
2023-01-31T10:54:55.194Z,23.40
2023-01-31T10:57:23.250Z,24.00
2023-01-31T10:59:55.347Z,23.50
2023-01-31T11:02:25.240Z,23.80
2023-01-31T11:04:57.971Z,24.00
2023-01-31T11:07:29.734Z,23.80
2023-01-31T11:09:58.630Z,23.30
2023-01-31T11:12:43.938Z,23.20
2023-01-31T11:15:17.677Z,23.70
2023-01-31T11:17:46.474Z,22.20
2023-01-31T11:20:24.443Z,23.90
2023-01-31T11:22:53.548Z,23.20
2023-01-31T11:25:22.674Z,22.20
2023-01-31T11:27:53.091Z,23.10
2023-01-31T11:30:36.330Z,23.30
2023-01-31T11:33:05.175Z,24.20
2023-01-31T11:35:34.550Z,24.50
2023-01-31T11:38:09.689Z,24.80
2023-01-31T11:40:38.756Z,23.70
2023-01-31T11:43:23.866Z,24.50
2023-01-31T11:45:59.403Z,23.70
2023-01-31T11:48:41.161Z,23.00
2023-01-31T11:51:09.111Z,25.20
2023-01-31T11:53:43.517Z,26.30
2023-01-31T11:56:23.125Z,25.50
2023-01-31T11:58:53.828Z,24.50
2023-01-31T12:01:23.113Z,25.60
2023-01-31T12:04:02.676Z,24.90
2023-01-31T12:06:39.270Z,25.10
2023-01-31T14:27:57.851Z,29.40
2023-01-31T14:30:27.369Z,28.70
2023-01-31T14:33:13.799Z,28.00
2023-01-31T14:36:19.721Z,30.40
2023-01-31T14:39:01.796Z,31.20
2023-01-31T14:41:33.071Z,30.30
2023-01-31T14:44:19.438Z,31.70
2023-01-31T14:47:18.444Z,28.80
2023-01-31T14:49:55.775Z,28.30
2023-01-31T14:52:48.419Z,30.30
2023-01-31T14:55:32.100Z,29.30
2023-01-31T14:58:01.413Z,28.30
2023-01-31T15:00:34.885Z,28.80
2023-01-31T15:03:26.584Z,29.30
2023-01-31T15:05:57.201Z,30.10
2023-01-31T15:08:25.190Z,30.20
2023-01-31T15:11:02.154Z,23.30
2023-01-31T15:13:38.301Z,31.90
2023-01-31T15:16:30.658Z,32.50
2023-01-31T15:19:08.545Z,31.40
2023-01-31T15:21:48.048Z,32.10
2023-01-31T15:24:26.187Z,33.10
2023-01-31T15:26:54.585Z,32.20
2023-01-31T15:29:25.074Z,32.30
2023-01-31T15:31:55.479Z,31.60
2023-01-31T15:34:27.747Z,32.40
2023-01-31T15:37:06.499Z,31.30
2023-01-31T15:39:44.217Z,33.20
2023-01-31T15:42:29.492Z,31.90
2023-01-31T15:45:22.011Z,33.50
2023-01-31T15:48:01.260Z,34.40
2023-01-31T15:50:33.332Z,32.20
2023-01-31T15:53:06.518Z,34.20
2023-01-31T15:55:35.480Z,31.80
2023-01-31T15:58:06.999Z,32.40
2023-01-31T16:00:37.395Z,34.30
2023-01-31T16:03:07.916Z,34.90
2023-01-31T16:05:37.913Z,34.00
2023-01-31T16:08:20.342Z,32.70
2023-01-31T16:10:48.618Z,34.20
2023-01-31T16:13:16.692Z,32.10
2023-01-31T16:15:44.742Z,33.20
2023-01-31T16:18:12.947Z,33.20
2023-01-31T16:20:51.219Z,32.30
2023-01-31T16:23:33.429Z,33.50
2023-01-31T16:26:08.994Z,34.60
2023-01-31T16:28:45.883Z,33.10
2023-01-31T16:31:16.586Z,35.50
2023-01-31T16:34:00.105Z,35.00
2023-01-31T16:36:49.111Z,35.20
2023-01-31T16:39:24.281Z,34.70
2023-01-31T16:41:52.652Z,35.50
2023-01-31T16:44:22.114Z,35.00
2023-01-31T16:46:50.695Z,35.10
2023-01-31T16:49:29.935Z,33.90
2023-01-31T16:52:24.764Z,34.80
2023-01-31T16:54:54.088Z,36.70
2023-01-31T16:57:23.127Z,36.20
2023-01-31T16:59:54.506Z,38.70
2023-01-31T17:02:25.761Z,38.80
2023-01-31T17:04:56.320Z,40.00
2023-01-31T17:07:27.182Z,37.30
2023-01-31T17:09:57.544Z,36.40
2023-01-31T17:12:29.803Z,35.80
2023-01-31T17:15:01.621Z,37.40
2023-01-31T17:17:34.808Z,35.40
2023-01-31T17:20:03.082Z,36.00
2023-01-31T17:22:32.319Z,37.30
2023-01-31T17:25:00.448Z,36.00
2023-01-31T17:27:28.451Z,37.20
2023-01-31T17:29:56.559Z,35.80
2023-01-31T17:32:24.539Z,38.60
2023-01-31T17:34:52.726Z,30.00
2023-01-31T17:37:31.193Z,38.20
2023-01-31T17:42:27.839Z,37.60
2023-01-31T17:44:56.057Z,38.40
2023-01-31T17:47:25.316Z,39.20
2023-01-31T17:50:00.018Z,43.80
2023-01-31T17:52:28.207Z,40.20
2023-01-31T17:54:56.295Z,41.20
2023-01-31T17:57:24.458Z,39.10
2023-01-31T17:59:52.528Z,39.90
2023-01-31T18:02:20.796Z,39.30
2023-01-31T18:04:48.806Z,32.00
2023-01-31T18:07:17.062Z,39.60
2023-01-31T20:20:09.317Z,47.00
2023-01-31T20:22:36.734Z,44.30
2023-01-31T20:25:04.745Z,45.20
2023-01-31T20:27:34.756Z,43.50
2023-01-31T20:30:01.807Z,44.00
2023-01-31T20:32:29.189Z,44.50
2023-01-31T20:34:56.608Z,43.90
2023-01-31T20:37:23.863Z,42.70
2023-01-31T20:39:51.113Z,42.60
2023-01-31T20:42:17.752Z,41.90
2023-01-31T20:44:44.333Z,40.50
2023-01-31T20:47:10.992Z,41.10
2023-01-31T20:49:37.766Z,41.90
2023-01-31T20:52:04.888Z,41.70
2023-01-31T20:54:33.396Z,39.60
2023-01-31T20:57:00.242Z,40.90
2023-01-31T20:59:27.801Z,42.20
2023-01-31T21:01:54.448Z,41.10
2023-01-31T21:04:21.008Z,40.30
2023-01-31T21:06:48.915Z,39.70
2023-01-31T21:09:15.770Z,40.90
2023-01-31T21:11:42.641Z,39.80
2023-01-31T21:14:09.569Z,39.50
2023-01-31T21:16:36.169Z,41.50
2023-01-31T21:19:02.793Z,39.60
2023-01-31T21:21:29.810Z,41.20
2023-01-31T21:23:56.777Z,40.50
2023-01-31T21:26:25.681Z,43.00
2023-01-31T21:28:53.770Z,41.40
2023-01-31T21:31:20.596Z,41.40
2023-01-31T21:33:49.988Z,39.50
2023-01-31T21:36:18.547Z,40.30
2023-01-31T21:38:45.231Z,38.60
2023-01-31T21:41:30.872Z,39.70
2023-01-31T21:43:57.645Z,39.20
2023-01-31T21:46:24.893Z,40.70
2023-01-31T21:48:51.991Z,40.00
2023-01-31T21:51:19.909Z,41.60
2023-01-31T21:53:46.445Z,40.50
2023-01-31T21:56:20.213Z,39.60
2023-01-31T21:58:46.991Z,41.20
2023-01-31T22:01:20.879Z,42.40
2023-01-31T22:03:48.975Z,43.90
2023-01-31T22:06:20.429Z,40.80
2023-01-31T22:08:55.623Z,42.60
2023-01-31T22:11:22.481Z,42.30
2023-01-31T22:13:52.198Z,40.30
2023-01-31T22:16:20.885Z,41.30
2023-01-31T22:18:47.693Z,41.80
2023-01-31T22:21:19.077Z,41.90
2023-01-31T22:23:47.482Z,41.50
2023-01-31T22:26:19.121Z,40.70
2023-01-31T22:28:46.422Z,42.30
2023-01-31T22:31:13.181Z,42.10
2023-01-31T22:33:40.890Z,43.20
2023-01-31T22:36:08.954Z,41.20
2023-01-31T22:38:35.839Z,43.40
2023-01-31T22:41:04.295Z,44.90
2023-01-31T22:43:35.873Z,42.20
2023-01-31T22:46:02.984Z,44.70
2023-01-31T22:48:29.869Z,44.30
2023-01-31T22:50:57.954Z,44.30
2023-01-31T22:53:25.091Z,42.20
2023-01-31T22:55:52.393Z,41.60
2023-01-31T22:58:19.489Z,43.50
2023-01-31T23:00:48.339Z,40.30
2023-01-31T23:03:15.001Z,40.90
2023-01-31T23:05:44.582Z,41.00
2023-01-31T23:08:12.566Z,41.40
2023-01-31T23:10:39.948Z,41.10
2023-01-31T23:13:06.681Z,42.60
2023-01-31T23:15:33.769Z,44.20
2023-01-31T23:18:20.816Z,43.10
2023-01-31T23:20:47.632Z,40.90
2023-01-31T23:23:14.212Z,41.10
2023-01-31T23:25:40.967Z,40.10
2023-01-31T23:28:07.607Z,39.70
2023-01-31T23:30:34.542Z,41.40
2023-01-31T23:33:02.059Z,37.40
2023-01-31T23:35:31.478Z,40.30
2023-01-31T23:37:58.151Z,41.50
2023-01-31T23:40:24.725Z,38.80
2023-01-31T23:42:52.309Z,38.60
2023-01-31T23:45:19.295Z,41.60
2023-01-31T23:47:45.956Z,40.90
2023-01-31T23:50:12.681Z,40.50
2023-01-31T23:52:42.196Z,38.10
2023-01-31T23:55:09.583Z,39.30
2023-01-31T23:57:36.364Z,39.90
